Latest Weather Observations for Swan Island

IDT60801

Issued at 9:32 pm EDT Monday 16 January 2017 (issued every 30 minutes, with the page automatically refreshed every 10 minutes)

About weather observations | Map of weather stations | Latest weather observations for TAS | Other Formats
Station Details ID: 092123 Name: SWAN ISLAND Lat: -40.73 Lon: 148.12 Height: 15.0 m
Data from the previous 72 hours. | See also: Recent months at Swan Island
Date/Time
EDT
Temp
°C
App
Temp
°C
Dew
Point
°C
Rel
Hum
%
Delta-T
°C
Wind Press
QNH
hPa
Press
MSL
hPa
Rain since
9am
mm
Dir  Spd
km/h
Gust
km/h
Spd
kts
Gust
kts
16/09:30pm 16.1 11.1 13.4 84 1.5 WNW 32 41 17 22 1010.1 1010.1 0.0
16/09:00pm 15.9 10.8 13.0 83 1.6 WNW 32 39 17 21 1010.0 1010.0 0.0
16/08:30pm 16.1 12.0 12.8 81 1.8 WNW 26 35 14 19 1009.9 1009.9 0.0
16/08:00pm 16.3 12.1 12.5 78 2.1 WNW 26 37 14 20 1010.0 1010.0 0.0
16/07:30pm 16.5 11.8 12.1 75 2.4 WNW 28 39 15 21 1009.9 1009.9 0.0
16/07:00pm 16.8 11.4 12.1 74 2.6 WNW 32 39 17 21 1010.0 1010.0 0.0
16/06:30pm 17.1 11.5 12.2 73 2.7 WNW 33 43 18 23 1010.0 1010.0 0.0
16/06:00pm 17.4 11.9 12.3 72 2.8 WNW 33 48 18 26 1010.1 1010.1 0.0
16/05:55pm 17.4 12.0 12.3 72 2.8 WNW 32 50 17 27 1010.2 1010.2 0.0
16/05:30pm 17.4 11.8 12.1 71 2.9 WNW 33 46 18 25 1010.4 1010.4 0.0
16/05:00pm 17.6 11.5 11.6 68 3.3 WNW 35 46 19 25 1010.7 1010.7 0.0
16/04:30pm 17.9 11.8 11.7 67 3.4 WNW 35 50 19 27 1011.0 1010.9 0.0
16/04:00pm 17.9 12.4 12.4 70 3.1 WNW 33 44 18 24 1011.3 1011.2 0.0
16/03:30pm 18.4 13.1 12.6 69 3.2 WNW 32 48 17 26 1011.5 1011.4 0.0
16/03:02pm 18.3 12.6 11.8 66 3.6 WNW 33 52 18 28 1011.6 1011.5 0.0
16/03:00pm 18.4 12.9 11.9 66 3.6 WNW 32 46 17 25 1011.7 1011.6 0.0
16/02:40pm 18.0 12.4 11.6 66 3.5 WNW 32 50 17 27 1011.7 1011.6 0.0
16/02:30pm 18.1 12.1 12.1 68 3.3 WNW 35 50 19 27 1011.7 1011.6 0.0
16/02:00pm 18.2 13.3 12.6 70 3.1 WNW 30 43 16 23 1012.2 1012.1 0.0
16/01:30pm 18.2 13.6 12.4 69 3.2 WNW 28 39 15 21 1012.4 1012.3 0.0
16/01:00pm 17.5 12.4 12.0 70 3.0 WNW 30 43 16 23 1012.8 1012.7 0.0
16/12:30pm 17.2 12.1 11.9 71 2.9 WNW 30 43 16 23 1012.9 1012.8 0.0
16/12:00pm 17.4 12.5 11.4 68 3.3 WNW 28 44 15 24 1013.0 1012.9 0.0
16/11:30am 17.0 11.0 10.8 67 3.3 WNW 33 46 18 25 1013.1 1013.0 0.0
16/11:00am 17.3 11.5 10.9 66 3.4 W 32 52 17 28 1013.1 1013.0 0.0
16/10:51am 17.1 11.8 11.2 68 3.2 W 30 50 16 27 1013.2 1013.1 0.0
16/10:30am 16.6 10.7 11.3 71 2.9 W 33 50 18 27 1013.3 1013.2 0.0
16/10:25am 16.6 10.9 11.1 70 3.0 W 32 50 17 27 1013.4 1013.3 0.0
16/10:00am 16.6 10.0 11.3 71 2.9 W 37 48 20 26 1013.4 1013.3 0.0
16/09:30am 16.2 11.3 11.4 73 2.6 W 28 41 15 22 1013.6 1013.5 0.0
16/09:00am 16.1 11.0 10.6 70 2.9 W 28 44 15 24 1013.5 1013.4 0.0
16/08:30am 15.9 10.0 10.4 70 2.9 W 32 48 17 26 1013.6 1013.5 0.0
16/08:25am 15.7 9.7 10.2 70 2.9 W 32 50 17 27 1013.5 1013.4 0.0
16/08:00am 15.3 8.8 10.5 73 2.5 WNW 35 48 19 26 1013.4 1013.3 0.0
16/07:39am 15.3 9.2 10.5 73 2.5 WNW 33 52 18 28 1013.1 1013.0 0.0
16/07:30am 15.3 8.8 10.5 73 2.5 W 35 48 19 26 1013.2 1013.1 0.0
16/07:16am 15.4 9.6 10.8 74 2.4 W 32 50 17 27 1013.1 1013.0 0.0
16/07:00am 15.1 8.9 10.1 72 2.6 WNW 33 50 18 27 1012.9 1012.8 0.0
16/06:30am 15.1 9.3 10.7 75 2.3 W 32 50 17 27 1012.5 1012.4 0.0
16/06:00am 15.0 10.0 10.8 76 2.2 W 28 43 15 23 1012.4 1012.3 0.0
16/05:54am 15.0 10.0 10.8 76 2.2 W 28 48 15 26 1012.4 1012.3 0.0
16/05:30am 14.8 9.3 10.6 76 2.2 W 30 39 16 21 1012.1 1012.0 0.0
16/05:03am 14.8 9.6 10.4 75 2.3 W 28 46 15 25 1011.9 1011.8 0.0
16/05:00am 14.8 9.6 10.4 75 2.3 W 28 44 15 24 1011.9 1011.8 0.0
16/04:30am 14.9 9.4 10.5 75 2.3 W 30 46 16 25 1011.7 1011.6 0.0
16/04:00am 14.7 7.4 10.1 74 2.4 W 39 52 21 28 1011.4 1011.3 0.0
16/03:30am 14.6 8.6 10.0 74 2.4 W 32 46 17 25 1011.7 1011.6 0.0
16/03:00am 14.6 8.6 10.0 74 2.4 W 32 48 17 26 1011.9 1011.8 0.0
16/02:30am 14.7 8.6 9.9 73 2.5 W 32 48 17 26 1012.1 1012.0 0.0
16/02:00am 14.8 8.6 10.2 74 2.4 W 33 52 18 28 1012.4 1012.3 0.0
16/01:30am 15.0 9.1 10.6 75 2.3 W 32 48 17 26 1012.5 1012.4 0.0
16/01:14am 15.2 9.3 10.6 74 2.4 W 32 52 17 28 1012.7 1012.6 0.0
16/01:00am 15.1 8.2 10.3 73 2.5 W 37 50 20 27 1012.7 1012.6 0.0
16/12:30am 15.4 8.5 10.2 71 2.7 W 37 56 20 30 1012.9 1012.8 0.0
16/12:19am 15.4 9.4 10.8 74 2.4 W 33 52 18 28 1012.8 1012.7 0.0
16/12:00am 15.4 8.7 11.0 75 2.3 W 37 54 20 29 1012.8 1012.7 0.0
 
Date/Time
EDT
Temp
°C
App
Temp
°C
Dew
Point
°C
Rel
Hum
%
Delta-T
°C
Wind Press
QNH
hPa
Press
MSL
hPa
Rain since
9am
mm
Dir  Spd
km/h
Gust
km/h
Spd
kts
Gust
kts
15/11:30pm 15.6 9.4 11.4 76 2.3 W 35 50 19 27 1013.2 1013.1 0.0
15/11:00pm 15.6 9.1 11.6 77 2.2 W 37 52 20 28 1013.3 1013.2 0.0
15/10:32pm 15.7 9.6 11.7 77 2.2 W 35 54 19 29 1013.3 1013.2 0.0
15/10:30pm 15.8 9.3 11.8 77 2.2 W 37 56 20 30 1013.3 1013.2 0.0
15/10:00pm 15.7 8.8 11.7 77 2.2 W 39 52 21 28 1013.4 1013.3 0.0
15/09:30pm 15.7 10.1 11.5 76 2.3 W 32 50 17 27 1013.3 1013.2 0.0
15/09:00pm 16.0 10.5 11.8 76 2.3 W 32 52 17 28 1013.1 1013.0 0.0
15/08:30pm 16.0 9.8 11.4 74 2.5 W 35 54 19 29 1012.8 1012.7 0.0
15/08:13pm 16.3 10.8 11.7 74 2.5 W 32 52 17 28 1012.8 1012.7 0.0
15/08:00pm 16.3 10.5 11.5 73 2.6 W 33 48 18 26 1012.8 1012.7 0.0
15/07:30pm 16.6 11.1 11.7 73 2.7 W 32 50 17 27 1012.7 1012.6 0.0
15/07:00pm 16.9 10.8 11.6 71 2.9 W 35 57 19 31 1012.6 1012.5 0.0
15/06:30pm 17.1 10.6 11.8 71 2.9 WNW 37 56 20 30 1012.5 1012.4 0.0
15/06:03pm 17.6 12.2 12.1 70 3.0 W 32 52 17 28 1012.5 1012.4 0.0
15/06:00pm 17.2 10.9 11.2 68 3.2 W 35 52 19 28 1012.5 1012.4 0.0
15/05:32pm 17.9 12.4 11.9 68 3.3 W 32 52 17 28 1012.8 1012.7 0.0
15/05:30pm 17.7 12.0 11.7 68 3.3 W 33 52 18 28 1012.8 1012.7 0.0
15/05:02pm 17.9 12.2 11.2 65 3.6 W 32 50 17 27 1013.0 1012.9 0.0
15/05:00pm 18.0 12.3 11.3 65 3.6 W 32 44 17 24 1013.1 1013.0 0.0
15/04:30pm 18.4 12.7 11.2 63 3.9 W 32 50 17 27 1013.3 1013.2 0.0
15/04:00pm 18.1 12.2 11.0 63 3.8 WNW 33 48 18 26 1013.5 1013.4 0.0
15/03:50pm 18.2 12.4 10.8 62 4.0 WNW 32 52 17 28 1013.6 1013.5 0.0
15/03:30pm 18.1 11.8 11.0 63 3.8 WNW 35 50 19 27 1013.6 1013.5 0.0
15/03:00pm 18.2 12.1 10.3 60 4.2 WNW 33 50 18 27 1013.6 1013.5 0.0
15/02:30pm 17.9 11.5 10.8 63 3.8 WNW 35 48 19 26 1013.9 1013.8 0.0
15/02:00pm 18.3 12.7 10.2 59 4.3 W 30 44 16 24 1013.8 1013.7 0.0
15/01:38pm 18.6 12.4 10.2 58 4.5 W 33 52 18 28 1013.8 1013.7 0.0
15/01:30pm 18.1 10.3 9.7 58 4.4 W 41 54 22 29 1013.7 1013.6 0.0
15/01:00pm 18.4 11.8 10.0 58 4.5 W 35 48 19 26 1014.0 1013.9 0.0
15/12:30pm 18.1 11.9 10.0 59 4.3 W 33 48 18 26 1013.9 1013.8 0.0
15/12:12pm 18.1 12.3 9.5 57 4.5 W 30 50 16 27 1014.0 1013.9 0.0
15/12:00pm 17.7 11.0 8.3 54 4.8 W 33 50 18 27 1014.0 1013.9 0.0
15/11:30am 17.6 11.2 8.7 56 4.6 W 32 48 17 26 1014.0 1013.9 0.0
15/11:00am 17.5 11.5 8.6 56 4.6 W 30 46 16 25 1013.9 1013.8 0.0
15/10:30am 17.6 12.1 9.0 57 4.5 W 28 41 15 22 1013.8 1013.7 0.0
15/10:00am 16.9 11.7 8.8 59 4.2 W 26 37 14 20 1013.9 1013.8 0.0
15/09:30am 15.7 10.5 8.7 63 3.6 W 26 39 14 21 1013.9 1013.8 0.0
15/09:00am 16.0 11.2 8.7 62 3.7 W 24 35 13 19 1013.8 1013.7 0.0
15/08:30am 15.1 11.0 7.9 62 3.6 W 19 30 10 16 1013.6 1013.5 0.0
15/08:00am 14.4 10.1 7.2 62 3.5 WSW 19 30 10 16 1013.4 1013.3 0.0
15/07:30am 14.0 10.4 8.4 69 2.8 WSW 17 26 9 14 1012.9 1012.8 0.0
15/07:00am 13.4 9.5 8.5 72 2.5 WSW 19 28 10 15 1012.3 1012.2 0.0
15/06:30am 12.3 9.3 7.6 73 2.3 WSW 13 19 7 10 1011.9 1011.8 0.0
15/06:00am 12.2 8.3 7.3 72 2.4 WSW 17 28 9 15 1011.7 1011.6 0.0
15/05:30am 12.6 7.9 7.7 72 2.4 WSW 22 32 12 17 1011.3 1011.2 0.0
15/05:00am 12.5 8.7 7.6 72 2.4 WSW 17 28 9 15 1010.9 1010.8 0.0
15/04:30am 12.6 8.8 7.5 71 2.5 WSW 17 30 9 16 1010.2 1010.2 0.0
15/04:00am 13.0 8.8 7.5 69 2.7 WSW 19 30 10 16 1010.1 1010.1 0.0
15/03:30am 12.7 8.6 6.1 64 3.1 WSW 17 37 9 20 1010.0 1010.0 0.0
15/03:00am 12.8 8.3 5.9 63 3.3 WSW 19 30 10 16 1009.9 1009.9 0.0
15/02:30am 13.1 7.8 6.7 65 3.1 WSW 24 35 13 19 1009.8 1009.8 0.0
15/02:00am 13.1 8.8 7.1 67 2.9 WSW 19 32 10 17 1009.8 1009.8 0.0
15/01:30am 13.4 9.1 7.8 69 2.8 WSW 20 35 11 19 1009.8 1009.8 0.0
15/01:00am 14.0 7.8 7.8 66 3.1 WSW 30 43 16 23 1009.6 1009.6 0.0
15/12:30am 14.1 8.6 7.6 65 3.2 WSW 26 43 14 23 1009.0 1009.0 0.0
15/12:00am 14.3 7.4 6.6 60 3.7 WSW 32 43 17 23 1008.7 1008.7 0.0
 
Date/Time
EDT
Temp
°C
App
Temp
°C
Dew
Point
°C
Rel
Hum
%
Delta-T
°C
Wind Press
QNH
hPa
Press
MSL
hPa
Rain since
9am
mm
Dir  Spd
km/h
Gust
km/h
Spd
kts
Gust
kts
14/11:30pm 14.5 7.7 7.5 63 3.5 WSW 33 46 18 25 1008.2 1008.2 0.0
14/11:00pm 14.9 8.2 8.2 64 3.4 WSW 33 52 18 28 1008.0 1008.0 0.0
14/10:45pm 14.9 8.3 7.7 62 3.6 W 32 50 17 27 1008.0 1008.0 0.0
14/10:30pm 15.2 7.3 8.0 62 3.6 W 39 54 21 29 1007.5 1007.5 0.0
14/10:01pm 15.1 8.1 8.6 65 3.3 W 35 57 19 31 1006.8 1006.8 0.0
14/10:00pm 15.2 8.3 8.7 65 3.3 W 35 50 19 27 1006.8 1006.8 0.0
14/09:30pm 15.4 7.1 9.3 67 3.1 W 43 57 23 31 1006.1 1006.1 0.0
14/09:05pm 15.5 6.7 9.6 68 3.1 W 46 67 25 36 1005.5 1005.5 0.0
14/09:00pm 15.5 6.2 9.0 65 3.3 W 48 61 26 33 1005.4 1005.4 0.0
14/08:30pm 15.8 6.1 9.2 65 3.4 W 50 70 27 38 1004.8 1004.8 0.0
14/08:00pm 16.1 6.5 8.1 59 4.1 W 48 70 26 38 1004.1 1004.1 0.0
14/07:32pm 16.5 6.1 9.4 63 3.7 W 54 72 29 39 1003.7 1003.7 0.0
14/07:30pm 16.5 5.8 9.4 63 3.7 W 56 72 30 39 1003.6 1003.6 0.0
14/07:00pm 17.2 7.8 10.1 63 3.8 W 50 70 27 38 1003.0 1003.0 0.0
14/06:30pm 17.5 8.7 10.9 65 3.6 W 48 80 26 43 1001.9 1001.9 0.0
14/06:00pm 17.9 10.5 12.6 71 3.0 WNW 43 63 23 34 1001.8 1001.8 0.0
14/05:35pm 18.1 11.0 12.3 69 3.2 WNW 41 61 22 33 1001.3 1001.3 0.0
14/05:30pm 18.2 11.2 12.6 70 3.1 W 41 59 22 32 1001.3 1001.3 0.0
14/05:06pm 18.1 10.7 13.0 72 2.9 WNW 44 65 24 35 1000.8 1000.8 0.0
14/05:00pm 18.2 10.8 13.1 72 2.9 WNW 44 63 24 34 1000.6 1000.6 0.0
14/04:30pm 18.6 11.3 13.5 72 2.9 WNW 44 65 24 35 1000.3 1000.3 0.0
14/04:00pm 18.5 11.2 12.7 69 3.3 WNW 43 70 23 38 999.9 999.9 0.0
14/03:30pm 18.4 10.0 12.2 67 3.4 WNW 48 76 26 41 999.4 999.4 0.0
14/03:00pm 18.8 10.8 12.3 66 3.6 W 46 70 25 38 999.2 999.2 0.0
14/02:30pm 18.6 10.1 12.1 66 3.6 WNW 48 69 26 37 998.1 998.1 0.0
14/02:00pm 18.6 8.8 12.6 68 3.4 WNW 56 82 30 44 997.4 997.4 0.0
14/01:30pm 18.3 8.4 12.5 69 3.2 WNW 56 78 30 42 997.0 997.0 0.0
14/01:00pm 18.3 9.4 11.8 66 3.6 W 50 74 27 40 997.0 997.0 0.0
14/12:30pm 18.3 8.3 12.7 70 3.1 WNW 57 83 31 45 996.2 996.2 0.0
14/12:00pm 17.8 6.7 12.9 73 2.8 WNW 63 91 34 49 994.7 994.7 0.0
14/11:30am 17.9 7.3 13.0 73 2.7 WNW 61 85 33 46 994.9 994.9 0.0
14/11:00am 17.7 8.2 12.4 71 3.0 WNW 54 78 29 42 995.0 995.0 0.0
14/10:30am 17.6 7.7 12.3 71 2.9 W 56 82 30 44 995.1 995.1 0.0
14/10:00am 16.9 6.8 12.2 74 2.6 WNW 57 78 31 42 995.6 995.6 0.0
14/09:46am 17.0 6.4 12.1 73 2.7 WNW 59 93 32 50 996.1 996.1 0.0
14/09:30am 17.2 8.3 11.9 71 2.9 W 50 72 27 39 996.6 996.6 0.0
14/09:00am 16.8 7.6 12.3 75 2.5 W 52 72 28 39 997.1 997.1 14.0
14/08:30am 15.4 6.5 12.0 80 1.8 W 50 72 27 39 997.1 997.1 13.8
14/08:00am 15.5 7.4 12.1 80 1.9 W 46 85 25 46 996.7 996.7 13.8
14/07:30am 16.7 7.6 11.2 70 3.0 WNW 50 72 27 39 996.0 996.0 13.8
14/07:00am 16.5 7.0 11.2 71 2.9 WNW 52 80 28 43 996.0 996.0 13.8
14/06:30am 16.5 7.3 11.0 70 2.9 WNW 50 76 27 41 995.7 995.7 13.8
14/06:00am 16.1 8.2 11.3 73 2.6 W 44 67 24 36 995.7 995.7 13.8
14/05:37am 16.1 6.6 11.1 72 2.7 WNW 52 80 28 43 995.5 995.5 13.8
14/05:30am 16.3 7.3 11.7 74 2.5 WNW 50 67 27 36 995.5 995.5 13.8
14/05:00am 16.3 8.0 11.5 73 2.6 W 46 78 25 42 995.3 995.3 13.8
14/04:31am 16.0 7.5 12.0 77 2.2 WNW 48 67 26 36 995.0 995.0 13.8
14/04:30am 16.0 7.5 12.0 77 2.2 WNW 48 67 26 36 995.0 995.0 13.8
14/04:00am 15.7 5.9 11.5 76 2.3 WNW 54 78 29 42 995.0 995.0 13.6
14/03:30am 16.5 7.9 11.6 73 2.7 WNW 48 69 26 37 995.0 995.0 13.6
14/03:12am 16.3 8.5 11.7 74 2.5 W 44 67 24 36 995.0 995.0 13.6
14/03:00am 16.3 8.7 11.9 75 2.4 WNW 43 59 23 32 994.9 994.9 13.6
14/02:30am 16.1 8.2 11.3 73 2.6 WNW 44 67 24 36 995.4 995.4 13.6
14/02:00am 15.7 6.7 11.5 76 2.3 W 50 72 27 39 995.6 995.6 13.6
14/01:39am 16.6 7.7 12.0 74 2.5 WNW 50 72 27 39 995.7 995.7 13.6
14/01:30am 16.5 7.6 11.9 74 2.5 WNW 50 69 27 37 995.9 995.9 13.6
14/01:04am 16.7 9.4 12.8 78 2.2 WNW 43 67 23 36 996.1 996.1 13.6
14/01:00am 16.8 9.5 12.7 77 2.3 WNW 43 57 23 31 996.2 996.2 13.6
14/12:30am 16.6 8.3 11.5 72 2.8 WNW 46 65 25 35 996.3 996.3 13.6
14/12:00am 16.7 7.3 11.4 71 2.9 WNW 52 70 28 38 996.2 996.2 13.6
 
Date/Time
EDT
Temp
°C
App
Temp
°C
Dew
Point
°C
Rel
Hum
%
Delta-T
°C
Wind Press
QNH
hPa
Press
MSL
hPa
Rain since
9am
mm
Dir  Spd
km/h
Gust
km/h
Spd
kts
Gust
kts
13/11:30pm 17.0 8.9 13.1 78 2.2 WNW 48 72 26 39 996.1 996.1 13.6
13/11:00pm 16.7 8.5 12.8 78 2.2 WNW 48 67 26 36 996.0 996.0 13.6
13/10:30pm 17.0 8.9 13.1 78 2.2 WNW 48 67 26 36 995.6 995.6 13.6
13/10:10pm 17.0 8.9 13.1 78 2.2 WNW 48 69 26 37 995.5 995.5 13.6
13/10:00pm 17.0 8.7 12.5 75 2.5 WNW 48 65 26 35 995.4 995.4 13.6

Other Formats:

Comma delimited format used in spreadsheet applications
http://www.bom.gov.au/fwo/IDT60801/IDT60801.95985.axf

JavaScript Object Notation format (JSON) in row-major order
http://www.bom.gov.au/fwo/IDT60801/IDT60801.95985.json